sensor_id;sensor_type;location;lat;lon;timestamp;pressure;altitude;pressure_sealevel;temperature;humidity
49216;BME280;45943;53.148;8.204;2023-08-06T00:00:28;100753.97;;;18.53;100.00
49216;BME280;45943;53.148;8.204;2023-08-06T00:02:54;100754.44;;;18.56;100.00
49216;BME280;45943;53.148;8.204;2023-08-06T00:05:20;100746.47;;;18.55;100.00
49216;BME280;45943;53.148;8.204;2023-08-06T00:07:48;100747.50;;;18.54;100.00
49216;BME280;45943;53.148;8.204;2023-08-06T00:10:15;100744.31;;;18.50;100.00
49216;BME280;45943;53.148;8.204;2023-08-06T00:12:42;100739.41;;;18.46;100.00
49216;BME280;45943;53.148;8.204;2023-08-06T00:15:08;100731.25;;;18.46;100.00
49216;BME280;45943;53.148;8.204;2023-08-06T00:17:35;100734.81;;;18.46;100.00
49216;BME280;45943;53.148;8.204;2023-08-06T00:20:01;100732.81;;;18.40;100.00
49216;BME280;45943;53.148;8.204;2023-08-06T00:22:32;100733.16;;;18.37;100.00
49216;BME280;45943;53.148;8.204;2023-08-06T00:24:59;100733.84;;;18.39;100.00
49216;BME280;45943;53.148;8.204;2023-08-06T00:27:25;100733.88;;;18.31;100.00
49216;BME280;45943;53.148;8.204;2023-08-06T00:29:51;100730.78;;;18.34;100.00
49216;BME280;45943;53.148;8.204;2023-08-06T00:32:18;100729.28;;;18.31;100.00
49216;BME280;45943;53.148;8.204;2023-08-06T00:34:44;100736.78;;;18.29;100.00
49216;BME280;45943;53.148;8.204;2023-08-06T00:37:10;100734.22;;;18.28;100.00
49216;BME280;45943;53.148;8.204;2023-08-06T00:39:36;100730.50;;;18.29;100.00
49216;BME280;45943;53.148;8.204;2023-08-06T00:42:02;100733.25;;;18.21;100.00
49216;BME280;45943;53.148;8.204;2023-08-06T00:44:28;100728.66;;;18.21;100.00
49216;BME280;45943;53.148;8.204;2023-08-06T00:46:55;100728.97;;;18.26;100.00
49216;BME280;45943;53.148;8.204;2023-08-06T00:49:21;100726.41;;;18.33;100.00
49216;BME280;45943;53.148;8.204;2023-08-06T00:51:47;100733.03;;;18.30;100.00
49216;BME280;45943;53.148;8.204;2023-08-06T00:54:13;100728.97;;;18.26;100.00
49216;BME280;45943;53.148;8.204;2023-08-06T00:56:39;100735.19;;;18.35;100.00
49216;BME280;45943;53.148;8.204;2023-08-06T00:59:07;100733.47;;;18.42;100.00
49216;BME280;45943;53.148;8.204;2023-08-06T01:01:36;100739.06;;;18.49;100.00
49216;BME280;45943;53.148;8.204;2023-08-06T01:04:02;100723.75;;;18.48;100.00
49216;BME280;45943;53.148;8.204;2023-08-06T01:09:13;100722.59;;;18.50;100.00
49216;BME280;45943;53.148;8.204;2023-08-06T01:12:18;100718.19;;;18.49;100.00
49216;BME280;45943;53.148;8.204;2023-08-06T01:15:02;100711.34;;;18.53;100.00
49216;BME280;45943;53.148;8.204;2023-08-06T01:17:47;100711.91;;;18.49;100.00
49216;BME280;45943;53.148;8.204;2023-08-06T01:20:14;100701.88;;;18.49;100.00
49216;BME280;45943;53.148;8.204;2023-08-06T01:22:39;100706.41;;;18.57;100.00
49216;BME280;45943;53.148;8.204;2023-08-06T01:25:06;100709.13;;;18.57;100.00
49216;BME280;45943;53.148;8.204;2023-08-06T01:27:42;100705.06;;;18.53;100.00
49216;BME280;45943;53.148;8.204;2023-08-06T01:30:12;100706.28;;;18.50;100.00
49216;BME280;45943;53.148;8.204;2023-08-06T01:32:42;100703.91;;;18.47;100.00
49216;BME280;45943;53.148;8.204;2023-08-06T01:35:12;100694.72;;;18.48;100.00
49216;BME280;45943;53.148;8.204;2023-08-06T01:37:40;100695.13;;;18.37;100.00
49216;BME280;45943;53.148;8.204;2023-08-06T01:40:10;100698.38;;;18.32;100.00
49216;BME280;45943;53.148;8.204;2023-08-06T01:42:40;100694.66;;;18.33;100.00
49216;BME280;45943;53.148;8.204;2023-08-06T01:45:07;100686.13;;;18.37;100.00
49216;BME280;45943;53.148;8.204;2023-08-06T01:47:34;100680.38;;;18.40;100.00
49216;BME280;45943;53.148;8.204;2023-08-06T01:50:00;100680.66;;;18.45;100.00
49216;BME280;45943;53.148;8.204;2023-08-06T01:52:26;100682.25;;;18.39;100.00
49216;BME280;45943;53.148;8.204;2023-08-06T01:54:52;100682.53;;;18.44;100.00
49216;BME280;45943;53.148;8.204;2023-08-06T01:57:18;100673.88;;;18.49;100.00
49216;BME280;45943;53.148;8.204;2023-08-06T01:59:44;100675.41;;;18.43;100.00
49216;BME280;45943;53.148;8.204;2023-08-06T02:02:10;100683.38;;;18.45;100.00
49216;BME280;45943;53.148;8.204;2023-08-06T02:04:36;100680.63;;;18.53;100.00
49216;BME280;45943;53.148;8.204;2023-08-06T02:07:02;100680.44;;;18.54;100.00
49216;BME280;45943;53.148;8.204;2023-08-06T02:09:28;100681.28;;;18.55;100.00
49216;BME280;45943;53.148;8.204;2023-08-06T02:11:54;100674.72;;;18.49;100.00
49216;BME280;45943;53.148;8.204;2023-08-06T02:14:20;100673.19;;;18.47;100.00
49216;BME280;45943;53.148;8.204;2023-08-06T02:16:46;100673.69;;;18.50;100.00
49216;BME280;45943;53.148;8.204;2023-08-06T02:19:12;100673.31;;;18.53;100.00
49216;BME280;45943;53.148;8.204;2023-08-06T02:21:38;100663.16;;;18.47;100.00
49216;BME280;45943;53.148;8.204;2023-08-06T02:24:04;100666.19;;;18.52;100.00
49216;BME280;45943;53.148;8.204;2023-08-06T02:26:30;100666.50;;;18.57;100.00
49216;BME280;45943;53.148;8.204;2023-08-06T02:28:56;100667.34;;;18.58;100.00
49216;BME280;45943;53.148;8.204;2023-08-06T02:31:22;100666.34;;;18.59;100.00
49216;BME280;45943;53.148;8.204;2023-08-06T02:33:48;100663.78;;;18.57;100.00
49216;BME280;45943;53.148;8.204;2023-08-06T02:36:14;100661.03;;;18.66;100.00
49216;BME280;45943;53.148;8.204;2023-08-06T02:38:40;100659.28;;;18.73;100.00
49216;BME280;45943;53.148;8.204;2023-08-06T02:41:06;100656.88;;;18.78;100.00
49216;BME280;45943;53.148;8.204;2023-08-06T02:43:32;100655.19;;;18.77;100.00
49216;BME280;45943;53.148;8.204;2023-08-06T02:45:58;100657.06;;;18.76;100.00
49216;BME280;45943;53.148;8.204;2023-08-06T02:48:25;100654.91;;;18.72;100.00
49216;BME280;45943;53.148;8.204;2023-08-06T02:50:51;100654.41;;;18.68;100.00
49216;BME280;45943;53.148;8.204;2023-08-06T02:53:17;100657.81;;;18.62;100.00
49216;BME280;45943;53.148;8.204;2023-08-06T02:55:47;100657.63;;;18.63;100.00
49216;BME280;45943;53.148;8.204;2023-08-06T02:58:16;100653.72;;;18.66;100.00
49216;BME280;45943;53.148;8.204;2023-08-06T03:00:43;100638.47;;;18.65;100.00
49216;BME280;45943;53.148;8.204;2023-08-06T03:03:09;100630.97;;;18.67;100.00
49216;BME280;45943;53.148;8.204;2023-08-06T03:05:35;100627.06;;;18.70;100.00
49216;BME280;45943;53.148;8.204;2023-08-06T03:08:01;100628.38;;;18.74;100.00
49216;BME280;45943;53.148;8.204;2023-08-06T03:10:27;100628.84;;;18.77;100.00
49216;BME280;45943;53.148;8.204;2023-08-06T03:12:53;100629.22;;;18.74;100.00
49216;BME280;45943;53.148;8.204;2023-08-06T03:15:19;100631.47;;;18.71;100.00
49216;BME280;45943;53.148;8.204;2023-08-06T03:17:45;100621.44;;;18.71;100.00
49216;BME280;45943;53.148;8.204;2023-08-06T03:20:11;100621.44;;;18.71;100.00
49216;BME280;45943;53.148;8.204;2023-08-06T03:22:37;100617.03;;;18.70;100.00
49216;BME280;45943;53.148;8.204;2023-08-06T03:25:03;100622.66;;;18.69;100.00
49216;BME280;45943;53.148;8.204;2023-08-06T03:27:30;100611.78;;;18.69;100.00
49216;BME280;45943;53.148;8.204;2023-08-06T03:29:56;100610.19;;;18.74;100.00
49216;BME280;45943;53.148;8.204;2023-08-06T03:32:22;100608.97;;;18.77;100.00
49216;BME280;45943;53.148;8.204;2023-08-06T03:34:48;100605.59;;;18.75;100.00
49216;BME280;45943;53.148;8.204;2023-08-06T03:37:14;100597.84;;;18.72;100.00
49216;BME280;45943;53.148;8.204;2023-08-06T03:39:40;100596.34;;;18.69;100.00
49216;BME280;45943;53.148;8.204;2023-08-06T03:42:06;100589.69;;;18.72;100.00
49216;BME280;45943;53.148;8.204;2023-08-06T03:44:31;100581.16;;;18.75;100.00
49216;BME280;45943;53.148;8.204;2023-08-06T03:46:57;100582.19;;;18.74;100.00
49216;BME280;45943;53.148;8.204;2023-08-06T03:49:23;100583.22;;;18.73;100.00
49216;BME280;45943;53.148;8.204;2023-08-06T03:51:49;100575.91;;;18.73;100.00
49216;BME280;45943;53.148;8.204;2023-08-06T03:54:15;100587.16;;;18.70;100.00
49216;BME280;45943;53.148;8.204;2023-08-06T03:56:41;100585.84;;;18.58;100.00
49216;BME280;45943;53.148;8.204;2023-08-06T03:59:07;100590.97;;;18.53;100.00
49216;BME280;45943;53.148;8.204;2023-08-06T04:01:33;100587.59;;;18.51;100.00
49216;BME280;45943;53.148;8.204;2023-08-06T04:03:59;100586.41;;;18.53;100.00
49216;BME280;45943;53.148;8.204;2023-08-06T04:06:25;100584.72;;;18.52;100.00
49216;BME280;45943;53.148;8.204;2023-08-06T04:08:51;100584.34;;;18.55;100.00
49216;BME280;45943;53.148;8.204;2023-08-06T04:11:17;100578.91;;;18.55;100.00
49216;BME280;45943;53.148;8.204;2023-08-06T04:13:43;100581.63;;;18.55;100.00
49216;BME280;45943;53.148;8.204;2023-08-06T04:16:10;100584.88;;;18.51;100.00
49216;BME280;45943;53.148;8.204;2023-08-06T04:18:36;100587.91;;;18.56;100.00
49216;BME280;45943;53.148;8.204;2023-08-06T04:21:02;100589.75;;;18.55;100.00
49216;BME280;45943;53.148;8.204;2023-08-06T04:23:28;100594.16;;;18.56;100.00
49216;BME280;45943;53.148;8.204;2023-08-06T04:25:57;100595.69;;;18.59;100.00
49216;BME280;45943;53.148;8.204;2023-08-06T04:28:23;100595.19;;;18.55;100.00
49216;BME280;45943;53.148;8.204;2023-08-06T04:30:49;100596.88;;;18.56;100.00
49216;BME280;45943;53.148;8.204;2023-08-06T04:33:15;100602.50;;;18.55;100.00
49216;BME280;45943;53.148;8.204;2023-08-06T04:35:41;100603.91;;;18.51;100.00
49216;BME280;45943;53.148;8.204;2023-08-06T04:38:07;100598.81;;;18.48;100.00
49216;BME280;45943;53.148;8.204;2023-08-06T04:40:36;100594.91;;;18.50;100.00
49216;BME280;45943;53.148;8.204;2023-08-06T04:43:02;100594.34;;;18.55;100.00
49216;BME280;45943;53.148;8.204;2023-08-06T04:45:29;100588.97;;;18.47;100.00
49216;BME280;45943;53.148;8.204;2023-08-06T04:47:55;100593.88;;;18.51;100.00
49216;BME280;45943;53.148;8.204;2023-08-06T04:50:20;100586.59;;;18.52;100.00
49216;BME280;45943;53.148;8.204;2023-08-06T04:52:46;100592.47;;;18.55;100.00
49216;BME280;45943;53.148;8.204;2023-08-06T04:55:12;100588.22;;;18.61;100.00
49216;BME280;45943;53.148;8.204;2023-08-06T04:57:38;100594.66;;;18.60;100.00
49216;BME280;45943;53.148;8.204;2023-08-06T05:00:05;100593.13;;;18.57;100.00
49216;BME280;45943;53.148;8.204;2023-08-06T05:02:31;100589.44;;;18.58;100.00
49216;BME280;45943;53.148;8.204;2023-08-06T05:05:00;100591.13;;;18.59;100.00
49216;BME280;45943;53.148;8.204;2023-08-06T05:07:26;100590.56;;;18.64;100.00
49216;BME280;45943;53.148;8.204;2023-08-06T05:09:52;100590.09;;;18.60;100.00
49216;BME280;45943;53.148;8.204;2023-08-06T05:12:18;100590.31;;;18.51;100.00
49216;BME280;45943;53.148;8.204;2023-08-06T05:14:44;100593.03;;;18.51;100.00
49216;BME280;45943;53.148;8.204;2023-08-06T05:17:10;100589.59;;;18.57;100.00
49216;BME280;45943;53.148;8.204;2023-08-06T05:19:36;100596.34;;;18.61;100.00
49216;BME280;45943;53.148;8.204;2023-08-06T05:22:02;100596.69;;;18.58;100.00
49216;BME280;45943;53.148;8.204;2023-08-06T05:24:28;100592.28;;;18.65;100.00
49216;BME280;45943;53.148;8.204;2023-08-06T05:26:54;100585.94;;;18.73;100.00
49216;BME280;45943;53.148;8.204;2023-08-06T05:29:20;100592.03;;;18.75;100.00
49216;BME280;45943;53.148;8.204;2023-08-06T05:31:45;100594.50;;;18.84;100.00
49216;BME280;45943;53.148;8.204;2023-08-06T05:34:11;100596.28;;;18.92;100.00
49216;BME280;45943;53.148;8.204;2023-08-06T05:36:37;100594.41;;;18.92;100.00
49216;BME280;45943;53.148;8.204;2023-08-06T05:39:03;100602.19;;;18.96;100.00
49216;BME280;45943;53.148;8.204;2023-08-06T05:41:29;100594.03;;;18.96;100.00
49216;BME280;45943;53.148;8.204;2023-08-06T05:43:55;100595.06;;;18.95;100.00
49216;BME280;45943;53.148;8.204;2023-08-06T05:46:21;100597.69;;;18.88;100.00
49216;BME280;45943;53.148;8.204;2023-08-06T05:48:47;100603.84;;;18.82;100.00
49216;BME280;45943;53.148;8.204;2023-08-06T05:51:13;100603.28;;;18.86;100.00
49216;BME280;45943;53.148;8.204;2023-08-06T05:53:41;100601.16;;;18.82;100.00
49216;BME280;45943;53.148;8.204;2023-08-06T05:56:07;100603.03;;;18.81;100.00
49216;BME280;45943;53.148;8.204;2023-08-06T05:58:33;100602.81;;;18.83;100.00
49216;BME280;45943;53.148;8.204;2023-08-06T06:00:59;100598.97;;;18.77;100.00
49216;BME280;45943;53.148;8.204;2023-08-06T06:03:26;100594.75;;;18.75;100.00
49216;BME280;45943;53.148;8.204;2023-08-06T06:05:52;100599.97;;;18.76;100.00
49216;BME280;45943;53.148;8.204;2023-08-06T06:08:18;100609.34;;;18.74;100.00
49216;BME280;45943;53.148;8.204;2023-08-06T06:10:44;100607.94;;;18.78;100.00
49216;BME280;45943;53.148;8.204;2023-08-06T06:13:10;100609.09;;;18.83;100.00
49216;BME280;45943;53.148;8.204;2023-08-06T06:15:36;100613.25;;;18.94;100.00
49216;BME280;45943;53.148;8.204;2023-08-06T06:18:02;100608.00;;;18.92;100.00
49216;BME280;45943;53.148;8.204;2023-08-06T06:20:28;100604.69;;;18.82;100.00
49216;BME280;45943;53.148;8.204;2023-08-06T06:22:54;100601.84;;;18.76;100.00
49216;BME280;45943;53.148;8.204;2023-08-06T06:25:20;100608.97;;;18.77;100.00
49216;BME280;45943;53.148;8.204;2023-08-06T06:27:46;100605.72;;;18.81;100.00
49216;BME280;45943;53.148;8.204;2023-08-06T06:30:12;100603.41;;;18.93;100.00
49216;BME280;45943;53.148;8.204;2023-08-06T06:32:40;100602.59;;;19.07;100.00
49216;BME280;45943;53.148;8.204;2023-08-06T06:35:06;100602.53;;;19.15;100.00
49216;BME280;45943;53.148;8.204;2023-08-06T06:37:32;100601.59;;;19.23;100.00
49216;BME280;45943;53.148;8.204;2023-08-06T06:39:58;100599.25;;;19.35;100.00
49216;BME280;45943;53.148;8.204;2023-08-06T06:42:24;100598.44;;;19.49;100.00
49216;BME280;45943;53.148;8.204;2023-08-06T06:44:50;100603.50;;;19.52;100.00
49216;BME280;45943;53.148;8.204;2023-08-06T06:47:16;100602.28;;;19.55;100.00
49216;BME280;45943;53.148;8.204;2023-08-06T06:49:42;100601.44;;;19.54;100.00
49216;BME280;45943;53.148;8.204;2023-08-06T06:52:08;100607.63;;;19.48;100.00
49216;BME280;45943;53.148;8.204;2023-08-06T06:54:34;100602.28;;;19.40;100.00
49216;BME280;45943;53.148;8.204;2023-08-06T06:57:00;100604.81;;;19.41;100.00
49216;BME280;45943;53.148;8.204;2023-08-06T06:59:26;100596.06;;;19.31;100.00
49216;BME280;45943;53.148;8.204;2023-08-06T07:01:52;100604.69;;;19.20;100.00
49216;BME280;45943;53.148;8.204;2023-08-06T07:04:18;100614.44;;;19.14;100.00
49216;BME280;45943;53.148;8.204;2023-08-06T07:06:44;100612.94;;;19.27;100.00
49216;BME280;45943;53.148;8.204;2023-08-06T07:09:10;100610.34;;;19.48;100.00
49216;BME280;45943;53.148;8.204;2023-08-06T07:11:36;100606.53;;;19.72;100.00
49216;BME280;45943;53.148;8.204;2023-08-06T07:14:02;100607.53;;;19.86;100.00
49216;BME280;45943;53.148;8.204;2023-08-06T07:16:28;100603.66;;;19.95;100.00
49216;BME280;45943;53.148;8.204;2023-08-06T07:18:54;100600.84;;;20.03;100.00
49216;BME280;45943;53.148;8.204;2023-08-06T07:21:21;100608.06;;;20.11;100.00
49216;BME280;45943;53.148;8.204;2023-08-06T07:23:46;100601.78;;;20.10;100.00
49216;BME280;45943;53.148;8.204;2023-08-06T07:26:15;100610.03;;;20.17;100.00
49216;BME280;45943;53.148;8.204;2023-08-06T07:28:42;100607.38;;;20.23;100.00
49216;BME280;45943;53.148;8.204;2023-08-06T07:31:07;100616.47;;;20.30;100.00
49216;BME280;45943;53.148;8.204;2023-08-06T07:33:33;100616.06;;;20.33;100.00
49216;BME280;45943;53.148;8.204;2023-08-06T07:35:59;100615.72;;;20.37;100.00
49216;BME280;45943;53.148;8.204;2023-08-06T07:38:25;100615.13;;;20.41;100.00
49216;BME280;45943;53.148;8.204;2023-08-06T07:40:52;100619.63;;;20.34;100.00
49216;BME280;45943;53.148;8.204;2023-08-06T07:43:18;100619.84;;;20.32;100.00
49216;BME280;45943;53.148;8.204;2023-08-06T07:45:44;100616.69;;;20.14;100.00
49216;BME280;45943;53.148;8.204;2023-08-06T07:48:09;100615.44;;;20.31;100.00
49216;BME280;45943;53.148;8.204;2023-08-06T07:50:35;100620.09;;;20.52;100.00
49216;BME280;45943;53.148;8.204;2023-08-06T07:53:01;100622.63;;;20.75;100.00
49216;BME280;45943;53.148;8.204;2023-08-06T07:55:28;100620.28;;;20.72;100.00
49216;BME280;45943;53.148;8.204;2023-08-06T07:57:54;100616.13;;;20.55;100.00
49216;BME280;45943;53.148;8.204;2023-08-06T08:00:20;100622.75;;;20.46;100.00
49216;BME280;45943;53.148;8.204;2023-08-06T08:02:46;100620.72;;;20.54;100.00
49216;BME280;45943;53.148;8.204;2023-08-06T08:05:12;100614.38;;;20.69;100.00
49216;BME280;45943;53.148;8.204;2023-08-06T08:07:38;100620.88;;;20.89;100.00
49216;BME280;45943;53.148;8.204;2023-08-06T08:10:04;100611.09;;;21.01;100.00
49216;BME280;45943;53.148;8.204;2023-08-06T08:12:30;100617.41;;;21.02;100.00
49216;BME280;45943;53.148;8.204;2023-08-06T08:14:56;100618.66;;;20.99;100.00
49216;BME280;45943;53.148;8.204;2023-08-06T08:17:22;100612.84;;;21.09;100.00
49216;BME280;45943;53.148;8.204;2023-08-06T08:19:48;100612.56;;;20.97;100.00
49216;BME280;45943;53.148;8.204;2023-08-06T08:22:14;100608.84;;;21.05;100.00
49216;BME280;45943;53.148;8.204;2023-08-06T08:24:49;100614.59;;;21.16;100.00
49216;BME280;45943;53.148;8.204;2023-08-06T08:31:04;100604.91;;;21.35;100.00
49216;BME280;45943;53.148;8.204;2023-08-06T08:33:34;100603.66;;;21.38;100.00
49216;BME280;45943;53.148;8.204;2023-08-06T08:36:00;100603.03;;;21.42;100.00
49216;BME280;45943;53.148;8.204;2023-08-06T08:38:26;100604.56;;;21.45;100.00
49216;BME280;45943;53.148;8.204;2023-08-06T08:40:53;100599.31;;;21.50;100.00
49216;BME280;45943;53.148;8.204;2023-08-06T08:43:21;100586.97;;;21.54;100.00
49216;BME280;45943;53.148;8.204;2023-08-06T08:45:51;100585.47;;;21.52;100.00
49216;BME280;45943;53.148;8.204;2023-08-06T08:48:18;100581.69;;;21.53;100.00
49216;BME280;45943;53.148;8.204;2023-08-06T08:50:45;100581.56;;;21.67;100.00
49216;BME280;45943;53.148;8.204;2023-08-06T08:53:13;100587.34;;;21.86;100.00
49216;BME280;45943;53.148;8.204;2023-08-06T08:55:40;100581.47;;;21.89;100.00
49216;BME280;45943;53.148;8.204;2023-08-06T08:58:09;100583.50;;;21.80;100.00
49216;BME280;45943;53.148;8.204;2023-08-06T09:00:35;100577.47;;;21.91;100.00
49216;BME280;45943;53.148;8.204;2023-08-06T09:03:01;100565.00;;;22.17;100.00
49216;BME280;45943;53.148;8.204;2023-08-06T09:05:31;100571.75;;;22.27;100.00
49216;BME280;45943;53.148;8.204;2023-08-06T09:08:01;100578.50;;;22.38;100.00
49216;BME280;45943;53.148;8.204;2023-08-06T09:10:28;100576.66;;;22.52;100.00
49216;BME280;45943;53.148;8.204;2023-08-06T09:12:55;100573.06;;;22.65;100.00
49216;BME280;45943;53.148;8.204;2023-08-06T09:15:25;100573.69;;;22.53;100.00
49216;BME280;45943;53.148;8.204;2023-08-06T09:17:52;100577.22;;;22.41;100.00
49216;BME280;45943;53.148;8.204;2023-08-06T09:20:18;100576.84;;;22.44;100.00
49216;BME280;45943;53.148;8.204;2023-08-06T09:22:45;100568.84;;;22.49;100.00
49216;BME280;45943;53.148;8.204;2023-08-06T09:25:20;100570.09;;;22.59;100.00
49216;BME280;45943;53.148;8.204;2023-08-06T09:27:48;100568.22;;;22.67;100.00
49216;BME280;45943;53.148;8.204;2023-08-06T09:30:14;100571.81;;;22.74;100.00
49216;BME280;45943;53.148;8.204;2023-08-06T09:32:56;100569.06;;;22.80;100.00
49216;BME280;45943;53.148;8.204;2023-08-06T09:35:22;100574.78;;;22.72;100.00
49216;BME280;45943;53.148;8.204;2023-08-06T09:37:48;100576.66;;;22.65;100.00
49216;BME280;45943;53.148;8.204;2023-08-06T09:40:24;100573.50;;;22.75;100.00
49216;BME280;45943;53.148;8.204;2023-08-06T09:42:54;100574.59;;;22.87;100.00
49216;BME280;45943;53.148;8.204;2023-08-06T09:45:21;100574.16;;;22.97;100.00
49216;BME280;45943;53.148;8.204;2023-08-06T09:47:48;100571.22;;;22.98;100.00
49216;BME280;45943;53.148;8.204;2023-08-06T09:50:19;100580.03;;;23.20;100.00
49216;BME280;45943;53.148;8.204;2023-08-06T09:52:48;100578.13;;;23.40;100.00
49216;BME280;45943;53.148;8.204;2023-08-06T09:55:16;100580.38;;;23.57;100.00
49216;BME280;45943;53.148;8.204;2023-08-06T09:57:43;100574.03;;;23.69;100.00
49216;BME280;45943;53.148;8.204;2023-08-06T10:00:09;100571.91;;;23.78;100.00
49216;BME280;45943;53.148;8.204;2023-08-06T10:02:40;100563.66;;;23.91;100.00
49216;BME280;45943;53.148;8.204;2023-08-06T10:05:08;100572.19;;;24.08;100.00
49216;BME280;45943;53.148;8.204;2023-08-06T10:07:35;100572.16;;;24.21;100.00
49216;BME280;45943;53.148;8.204;2023-08-06T10:10:02;100565.13;;;24.39;100.00
49216;BME280;45943;53.148;8.204;2023-08-06T10:12:29;100570.06;;;24.55;100.00
49216;BME280;45943;53.148;8.204;2023-08-06T10:15:09;100572.75;;;24.62;100.00
49216;BME280;45943;53.148;8.204;2023-08-06T10:17:38;100568.91;;;24.69;100.00
49216;BME280;45943;53.148;8.204;2023-08-06T10:20:05;100579.38;;;24.79;100.00
49216;BME280;45943;53.148;8.204;2023-08-06T10:22:41;100566.84;;;24.89;100.00
49216;BME280;45943;53.148;8.204;2023-08-06T10:25:08;100570.31;;;24.78;100.00
49216;BME280;45943;53.148;8.204;2023-08-06T10:27:35;100569.19;;;24.86;100.00
49216;BME280;45943;53.148;8.204;2023-08-06T10:32:58;100565.59;;;24.85;100.00
49216;BME280;45943;53.148;8.204;2023-08-06T10:38:15;100557.94;;;25.19;100.00
49216;BME280;45943;53.148;8.204;2023-08-06T10:43:31;100554.38;;;25.19;100.00
49216;BME280;45943;53.148;8.204;2023-08-06T10:45:59;100556.22;;;25.43;100.00
49216;BME280;45943;53.148;8.204;2023-08-06T10:48:34;100557.66;;;25.64;100.00
49216;BME280;45943;53.148;8.204;2023-08-06T10:51:02;100556.56;;;25.46;100.00
49216;BME280;45943;53.148;8.204;2023-08-06T10:53:29;100556.81;;;25.63;100.00
49216;BME280;45943;53.148;8.204;2023-08-06T10:55:55;100556.47;;;25.96;100.00
49216;BME280;45943;53.148;8.204;2023-08-06T10:58:21;100557.66;;;26.00;99.00
49216;BME280;45943;53.148;8.204;2023-08-06T11:00:47;100548.38;;;25.83;97.65
49216;BME280;45943;53.148;8.204;2023-08-06T11:03:14;100541.09;;;26.07;100.00
49216;BME280;45943;53.148;8.204;2023-08-06T11:05:40;100541.22;;;26.42;100.00
49216;BME280;45943;53.148;8.204;2023-08-06T11:08:06;100538.72;;;26.41;100.00
49216;BME280;45943;53.148;8.204;2023-08-06T11:10:32;100550.47;;;26.48;93.80
49216;BME280;45943;53.148;8.204;2023-08-06T11:13:03;100549.97;;;26.51;95.36
49216;BME280;45943;53.148;8.204;2023-08-06T11:15:31;100538.13;;;26.20;93.64
49216;BME280;45943;53.148;8.204;2023-08-06T11:17:58;100536.44;;;26.08;100.00
49216;BME280;45943;53.148;8.204;2023-08-06T11:20:24;100530.16;;;26.30;96.78
49216;BME280;45943;53.148;8.204;2023-08-06T11:23:09;100530.97;;;26.49;93.76
49216;BME280;45943;53.148;8.204;2023-08-06T11:25:36;100531.91;;;26.43;95.91
49216;BME280;45943;53.148;8.204;2023-08-06T11:28:03;100533.81;;;26.13;98.44
49216;BME280;45943;53.148;8.204;2023-08-06T11:30:29;100540.34;;;25.82;100.00
49216;BME280;45943;53.148;8.204;2023-08-06T11:32:56;100540.72;;;25.49;100.00
49216;BME280;45943;53.148;8.204;2023-08-06T11:35:22;100530.59;;;25.49;100.00
49216;BME280;45943;53.148;8.204;2023-08-06T11:37:48;100542.03;;;25.83;100.00
49216;BME280;45943;53.148;8.204;2023-08-06T11:40:17;100536.00;;;25.74;100.00
49216;BME280;45943;53.148;8.204;2023-08-06T11:42:43;100535.63;;;25.52;100.00
49216;BME280;45943;53.148;8.204;2023-08-06T11:45:09;100544.59;;;25.23;100.00
49216;BME280;45943;53.148;8.204;2023-08-06T11:47:39;100542.38;;;25.13;100.00
49216;BME280;45943;53.148;8.204;2023-08-06T11:50:08;100538.91;;;25.61;100.00
49216;BME280;45943;53.148;8.204;2023-08-06T11:52:34;100535.44;;;26.02;100.00
49216;BME280;45943;53.148;8.204;2023-08-06T11:55:06;100533.28;;;26.04;94.26
49216;BME280;45943;53.148;8.204;2023-08-06T11:57:34;100540.88;;;26.20;92.25
49216;BME280;45943;53.148;8.204;2023-08-06T12:00:01;100541.59;;;26.16;94.63
49216;BME280;45943;53.148;8.204;2023-08-06T12:02:32;100547.94;;;26.46;87.41
49216;BME280;45943;53.148;8.204;2023-08-06T12:05:04;100538.22;;;26.97;86.88
49216;BME280;45943;53.148;8.204;2023-08-06T12:07:39;100537.75;;;27.35;84.90
49216;BME280;45943;53.148;8.204;2023-08-06T12:10:07;100536.44;;;27.38;84.26
49216;BME280;45943;53.148;8.204;2023-08-06T12:12:34;100535.34;;;27.39;77.39
49216;BME280;45943;53.148;8.204;2023-08-06T12:15:01;100525.44;;;27.26;76.89
49216;BME280;45943;53.148;8.204;2023-08-06T12:17:27;100517.97;;;27.38;74.67
49216;BME280;45943;53.148;8.204;2023-08-06T12:19:53;100514.31;;;27.61;74.50
49216;BME280;45943;53.148;8.204;2023-08-06T12:22:20;100512.31;;;27.57;78.49
49216;BME280;45943;53.148;8.204;2023-08-06T12:24:46;100511.25;;;27.46;76.84
49216;BME280;45943;53.148;8.204;2023-08-06T12:27:13;100512.84;;;27.19;79.89
49216;BME280;45943;53.148;8.204;2023-08-06T12:29:42;100513.53;;;26.79;80.38
49216;BME280;45943;53.148;8.204;2023-08-06T12:32:10;100521.16;;;26.53;78.48
49216;BME280;45943;53.148;8.204;2023-08-06T12:34:40;100514.00;;;26.22;82.90
49216;BME280;45943;53.148;8.204;2023-08-06T12:37:07;100524.81;;;26.06;87.91
49216;BME280;45943;53.148;8.204;2023-08-06T12:39:34;100506.78;;;26.10;84.87
49216;BME280;45943;53.148;8.204;2023-08-06T12:42:02;100518.63;;;26.52;85.80
49216;BME280;45943;53.148;8.204;2023-08-06T12:44:29;100520.03;;;26.96;79.01
49216;BME280;45943;53.148;8.204;2023-08-06T12:46:55;100512.75;;;27.25;75.64
49216;BME280;45943;53.148;8.204;2023-08-06T12:49:21;100509.31;;;27.58;74.63
49216;BME280;45943;53.148;8.204;2023-08-06T12:51:51;100512.66;;;28.00;69.98
49216;BME280;45943;53.148;8.204;2023-08-06T12:54:18;100509.69;;;28.19;67.74